createdAt,value
2022-07-29T00:02:16.661Z,99736.63
2022-07-29T00:05:22.282Z,99732.47
2022-07-29T00:08:25.040Z,99735.88
2022-07-29T00:11:31.822Z,99730.03
2022-07-29T00:14:34.952Z,99721.25
2022-07-29T00:17:38.194Z,99716.03
2022-07-29T00:20:45.076Z,99727.44
2022-07-29T00:23:48.111Z,99723.59
2022-07-29T00:26:51.067Z,99719.56
2022-07-29T00:29:54.215Z,99723.59
2022-07-29T00:32:58.301Z,99707.59
2022-07-29T00:36:01.401Z,99713.28
2022-07-29T00:39:04.866Z,99708.19
2022-07-29T00:42:08.842Z,99719.44
2022-07-29T00:45:12.147Z,99719.28
2022-07-29T00:48:15.317Z,99701.78
2022-07-29T00:51:18.338Z,99708.56
2022-07-29T00:54:24.729Z,99706.09
2022-07-29T00:57:27.571Z,99691.81
2022-07-29T01:00:31.178Z,99702.91
2022-07-29T01:03:34.089Z,99695.94
2022-07-29T01:06:37.276Z,99699.66
2022-07-29T01:09:46.785Z,99698.09
2022-07-29T01:12:51.839Z,99708.72
2022-07-29T01:15:58.620Z,99704.59
2022-07-29T01:19:11.602Z,99711.34
2022-07-29T01:22:43.731Z,99715.34
2022-07-29T01:25:53.282Z,99710.28
2022-07-29T01:29:09.713Z,99706.28
2022-07-29T01:32:28.813Z,99704.25
2022-07-29T01:35:40.056Z,99703.81
2022-07-29T01:38:45.379Z,99706.72
2022-07-29T01:42:01.513Z,99712.28
2022-07-29T01:45:29.821Z,99710.00
2022-07-29T01:48:56.955Z,99708.59
2022-07-29T01:52:14.910Z,99704.94
2022-07-29T02:02:48.665Z,99721.69
2022-07-29T02:05:52.638Z,99718.78
2022-07-29T02:08:57.038Z,99720.59
2022-07-29T02:12:02.425Z,99713.22
2022-07-29T02:15:07.606Z,99708.31
2022-07-29T02:18:18.985Z,99713.69
2022-07-29T02:21:25.774Z,99707.69
2022-07-29T02:24:29.950Z,99707.38
2022-07-29T02:27:35.113Z,99715.06
2022-07-29T02:30:41.340Z,99702.16
2022-07-29T02:33:44.384Z,99707.06
2022-07-29T02:36:48.872Z,99722.72
2022-07-29T02:39:54.624Z,99713.47
2022-07-29T02:42:57.681Z,99714.84
2022-07-29T02:46:02.090Z,99709.03
2022-07-29T02:49:13.058Z,99717.59
2022-07-29T02:52:21.542Z,99715.47
2022-07-29T02:55:28.871Z,99716.50
2022-07-29T02:58:48.447Z,99708.97
2022-07-29T03:01:53.147Z,99722.78
2022-07-29T03:04:56.831Z,99717.91
2022-07-29T03:12:00.883Z,99722.59
2022-07-29T03:23:54.719Z,99719.22
2022-07-29T03:26:58.094Z,99722.28
2022-07-29T03:30:00.838Z,99730.72
2022-07-29T03:33:04.045Z,99729.03
2022-07-29T03:36:16.375Z,99721.50
2022-07-29T03:39:22.976Z,99719.03
2022-07-29T03:42:31.094Z,99721.03
2022-07-29T03:50:10.675Z,99719.34
2022-07-29T03:53:14.286Z,99713.69
2022-07-29T03:56:18.361Z,99724.19
2022-07-29T03:59:22.689Z,99728.50
2022-07-29T04:02:30.519Z,99725.28
2022-07-29T04:05:34.408Z,99727.91
2022-07-29T04:08:37.266Z,99736.50
2022-07-29T04:12:02.037Z,99736.69
2022-07-29T04:15:07.703Z,99733.91
2022-07-29T04:18:10.928Z,99728.81
2022-07-29T04:21:13.815Z,99736.69
2022-07-29T04:24:17.850Z,99739.28
2022-07-29T04:27:21.107Z,99739.72
2022-07-29T04:30:24.342Z,99735.78
2022-07-29T04:33:27.255Z,99739.31
2022-07-29T04:36:30.327Z,99739.47
2022-07-29T04:39:33.139Z,99740.72
2022-07-29T04:42:36.254Z,99732.25
2022-07-29T04:45:49.499Z,99743.81
2022-07-29T04:48:52.639Z,99738.75
2022-07-29T04:51:55.502Z,99737.41
2022-07-29T04:54:59.347Z,99741.37
2022-07-29T04:58:02.249Z,99738.16
2022-07-29T05:01:06.157Z,99746.12
2022-07-29T05:04:12.177Z,99744.59
2022-07-29T05:07:16.647Z,99752.56
2022-07-29T05:10:19.590Z,99753.31
2022-07-29T05:13:23.778Z,99751.03
2022-07-29T05:16:26.939Z,99747.63
2022-07-29T05:19:33.824Z,99750.06
2022-07-29T05:22:49.921Z,99749.59
2022-07-29T05:25:55.168Z,99748.63
2022-07-29T05:29:43.794Z,99748.59
2022-07-29T05:32:59.370Z,99746.69
2022-07-29T05:36:18.609Z,99748.03
2022-07-29T05:39:47.621Z,99748.91
2022-07-29T05:43:38.930Z,99753.31
2022-07-29T05:46:42.059Z,99753.97
2022-07-29T05:49:44.977Z,99751.88
2022-07-29T05:52:56.728Z,99755.47
2022-07-29T06:00:35.544Z,99760.41
2022-07-29T06:03:41.746Z,99752.88
2022-07-29T06:06:44.691Z,99760.31
2022-07-29T06:09:47.957Z,99761.09
2022-07-29T06:13:21.463Z,99757.06
2022-07-29T06:20:26.958Z,99761.41
2022-07-29T06:23:43.921Z,99760.72
2022-07-29T06:26:47.827Z,99761.84
2022-07-29T06:29:50.965Z,99758.34
2022-07-29T06:32:54.056Z,99762.28
2022-07-29T06:35:58.792Z,99766.34
2022-07-29T06:39:02.832Z,99766.09
2022-07-29T06:42:09.570Z,99770.50
2022-07-29T06:45:13.065Z,99772.03
2022-07-29T06:48:17.776Z,99769.31
2022-07-29T06:55:24.697Z,99764.97
2022-07-29T06:58:31.040Z,99759.50
2022-07-29T07:01:35.284Z,99770.19
2022-07-29T07:04:38.627Z,99771.97
2022-07-29T07:07:41.928Z,99772.69
2022-07-29T07:10:45.229Z,99767.34
2022-07-29T07:13:48.073Z,99768.22
2022-07-29T07:16:52.713Z,99767.38
2022-07-29T07:19:59.119Z,99772.22
2022-07-29T07:23:02.444Z,99757.31
2022-07-29T07:26:07.001Z,99766.50
2022-07-29T07:29:10.194Z,99751.75
2022-07-29T07:32:14.598Z,99750.47
2022-07-29T07:36:02.001Z,99751.16
2022-07-29T07:39:54.959Z,99752.75
2022-07-29T07:45:12.438Z,99748.13
2022-07-29T07:53:56.559Z,99743.13
2022-07-29T07:57:18.367Z,99745.84
2022-07-29T08:00:24.999Z,99741.66
2022-07-29T08:03:42.254Z,99740.84
2022-07-29T08:15:21.090Z,99740.41
2022-07-29T08:18:31.177Z,99738.47
2022-07-29T08:21:43.797Z,99738.34
2022-07-29T08:25:07.226Z,99747.34
2022-07-29T08:40:01.489Z,99738.66
2022-07-29T08:47:43.768Z,99731.28
2022-07-29T08:50:54.239Z,99742.47
2022-07-29T08:54:32.552Z,99734.37
2022-07-29T08:57:51.987Z,99736.41
2022-07-29T09:01:47.389Z,99734.63
2022-07-29T09:10:21.512Z,99740.72
2022-07-29T09:13:37.104Z,99723.41
2022-07-29T09:16:53.101Z,99736.41
2022-07-29T09:20:10.465Z,99727.97
2022-07-29T09:23:23.971Z,99724.16
2022-07-29T09:26:32.985Z,99729.03
2022-07-29T09:29:36.424Z,99721.13
2022-07-29T09:33:02.525Z,99726.19
2022-07-29T09:37:17.922Z,99724.19
2022-07-29T09:44:12.788Z,99723.69
2022-07-29T09:47:18.252Z,99719.63
2022-07-29T09:50:25.111Z,99717.06
2022-07-29T09:53:39.162Z,99719.63
2022-07-29T09:56:43.567Z,99712.50
2022-07-29T10:00:08.174Z,99716.53
2022-07-29T10:03:16.778Z,99712.44
2022-07-29T10:06:21.198Z,99713.25
2022-07-29T10:09:25.403Z,99716.44
2022-07-29T10:12:32.700Z,99703.41
2022-07-29T10:15:42.070Z,99702.53
2022-07-29T10:18:45.955Z,99699.22
2022-07-29T10:21:49.857Z,99701.28
2022-07-29T10:24:53.173Z,99698.13
2022-07-29T10:27:56.389Z,99697.66
2022-07-29T10:31:03.530Z,99688.94
2022-07-29T10:34:22.513Z,99695.50
2022-07-29T10:37:56.903Z,99692.62
2022-07-29T10:41:27.764Z,99685.81
2022-07-29T10:44:35.643Z,99681.41
2022-07-29T10:47:40.042Z,99686.25
2022-07-29T10:51:00.054Z,99674.66
2022-07-29T10:54:06.756Z,99665.84
2022-07-29T10:57:53.057Z,99666.88
2022-07-29T11:00:51.827Z,99660.09
2022-07-29T11:03:57.268Z,99665.28
2022-07-29T11:07:00.033Z,99657.22
2022-07-29T11:10:13.049Z,99664.16
2022-07-29T11:13:54.050Z,99651.00
2022-07-29T11:17:07.029Z,99645.34
2022-07-29T11:20:49.695Z,99653.69
2022-07-29T11:24:28.826Z,99650.50
2022-07-29T11:27:40.905Z,99645.22
2022-07-29T11:31:05.585Z,99637.28
2022-07-29T11:34:21.168Z,99639.78
2022-07-29T11:37:27.971Z,99631.78
2022-07-29T11:40:31.911Z,99628.50
2022-07-29T11:43:58.587Z,99624.56
2022-07-29T11:47:02.483Z,99622.38
2022-07-29T12:08:58.402Z,99600.22
2022-07-29T12:12:05.357Z,99609.03
2022-07-29T12:27:29.278Z,99586.16
2022-07-29T12:30:41.610Z,99572.06
2022-07-29T12:34:28.226Z,99573.28
2022-07-29T12:37:42.559Z,99568.63
2022-07-29T12:40:49.428Z,99565.31
2022-07-29T12:43:56.391Z,99560.44
2022-07-29T12:47:07.201Z,99568.53
2022-07-29T12:50:11.116Z,99560.91
2022-07-29T12:53:15.097Z,99556.47
2022-07-29T12:56:42.302Z,99547.09
2022-07-29T13:00:40.995Z,99538.81
2022-07-29T13:04:10.739Z,99539.69
2022-07-29T13:28:57.758Z,99522.34
2022-07-29T13:36:37.654Z,99520.37
2022-07-29T13:40:00.796Z,99521.22
2022-07-29T13:43:07.590Z,99508.16
2022-07-29T13:46:12.980Z,99507.94
2022-07-29T13:52:46.138Z,99503.69
2022-07-29T13:55:49.071Z,99498.25
2022-07-29T13:58:52.073Z,99496.88
2022-07-29T14:01:56.010Z,99492.06
2022-07-29T14:04:59.692Z,99475.63
2022-07-29T14:08:04.375Z,99478.75
2022-07-29T14:11:08.489Z,99476.47
2022-07-29T14:14:11.754Z,99485.91
2022-07-29T14:17:16.349Z,99481.63
2022-07-29T14:20:23.658Z,99480.00
2022-07-29T14:23:27.649Z,99472.75
2022-07-29T14:26:31.079Z,99465.91
2022-07-29T14:29:38.042Z,99474.31
2022-07-29T14:32:42.199Z,99475.31
2022-07-29T14:35:46.104Z,99465.31
2022-07-29T14:38:48.977Z,99464.56
2022-07-29T14:41:52.638Z,99462.22
2022-07-29T14:44:55.570Z,99463.69
2022-07-29T14:52:56.241Z,99456.00
2022-07-29T14:56:35.330Z,99446.59
2022-07-29T14:59:34.249Z,99440.06
2022-07-29T15:02:59.704Z,99445.94
2022-07-29T15:06:01.002Z,99437.09
2022-07-29T15:09:04.436Z,99436.28
2022-07-29T15:12:09.120Z,99427.25
2022-07-29T15:15:13.481Z,99429.16
2022-07-29T15:18:16.638Z,99417.41
2022-07-29T15:21:29.022Z,99414.56
2022-07-29T15:25:05.649Z,99412.56
2022-07-29T15:32:18.371Z,99411.31
2022-07-29T16:20:28.510Z,99389.31
2022-07-29T16:23:32.431Z,99393.31
2022-07-29T16:26:35.784Z,99383.56
2022-07-29T16:29:39.778Z,99390.03
2022-07-29T16:32:43.194Z,99390.19
2022-07-29T16:35:46.350Z,99387.66
2022-07-29T16:38:49.919Z,99392.28
2022-07-29T16:41:56.976Z,99388.53
2022-07-29T16:45:04.616Z,99381.34
2022-07-29T16:48:23.239Z,99384.84
2022-07-29T16:55:32.300Z,99393.25
2022-07-29T16:58:35.342Z,99399.09
2022-07-29T17:01:39.000Z,99406.28
2022-07-29T17:09:06.333Z,99410.62
2022-07-29T17:12:27.646Z,99409.09
2022-07-29T17:15:30.451Z,99419.72
2022-07-29T17:18:39.674Z,99427.75
2022-07-29T17:21:47.337Z,99415.47
2022-07-29T17:25:05.185Z,99426.34
2022-07-29T17:28:08.071Z,99425.34
2022-07-29T17:31:14.984Z,99426.38
2022-07-29T17:34:17.923Z,99428.97
2022-07-29T17:37:23.579Z,99425.41
2022-07-29T17:40:26.423Z,99425.91
2022-07-29T17:43:29.585Z,99424.88
2022-07-29T17:46:32.525Z,99429.19
2022-07-29T17:49:36.731Z,99432.78
2022-07-29T17:52:41.372Z,99427.97
2022-07-29T17:55:46.270Z,99433.81
2022-07-29T17:58:49.321Z,99440.91
2022-07-29T18:01:53.348Z,99445.47
2022-07-29T18:05:12.946Z,99445.00
2022-07-29T18:08:17.158Z,99448.03
2022-07-29T18:11:25.547Z,99448.28
2022-07-29T18:14:43.620Z,99450.53
2022-07-29T18:18:00.241Z,99444.44
2022-07-29T18:21:04.134Z,99442.91
2022-07-29T18:24:07.400Z,99448.72
2022-07-29T18:27:10.868Z,99449.00
2022-07-29T18:30:17.943Z,99447.47
2022-07-29T18:33:22.336Z,99456.97
2022-07-29T18:36:25.855Z,99458.22
2022-07-29T18:39:28.727Z,99449.34
2022-07-29T18:42:32.126Z,99442.69
2022-07-29T18:45:35.964Z,99441.62
2022-07-29T18:48:42.952Z,99445.13
2022-07-29T18:51:47.169Z,99453.91
2022-07-29T18:54:50.270Z,99453.59
2022-07-29T18:57:59.029Z,99448.72
2022-07-29T19:01:02.417Z,99449.66
2022-07-29T19:04:05.483Z,99443.81
2022-07-29T19:07:09.076Z,99448.22
2022-07-29T19:10:12.431Z,99446.47
2022-07-29T19:13:15.533Z,99445.31
2022-07-29T19:16:18.668Z,99443.28
2022-07-29T19:19:21.826Z,99455.03
2022-07-29T19:30:54.301Z,99484.53
2022-07-29T19:33:58.648Z,99508.75
2022-07-29T19:37:07.680Z,99508.41
2022-07-29T19:40:12.747Z,99517.16
2022-07-29T19:43:50.354Z,99510.63
2022-07-29T19:46:50.994Z,99502.19
2022-07-29T19:49:53.817Z,99491.50
2022-07-29T19:52:57.227Z,99488.13
2022-07-29T19:56:00.207Z,99482.22
2022-07-29T19:59:13.191Z,99481.94
2022-07-29T20:06:31.185Z,99474.50
2022-07-29T20:09:34.961Z,99473.13
2022-07-29T20:12:38.800Z,99464.31
2022-07-29T20:23:44.603Z,99464.00
2022-07-29T20:27:04.124Z,99463.12
2022-07-29T20:30:23.826Z,99457.19
2022-07-29T20:33:27.118Z,99469.63
2022-07-29T20:37:04.155Z,99466.00
2022-07-29T20:40:12.562Z,99463.50
2022-07-29T20:43:30.081Z,99460.84
2022-07-29T20:46:54.196Z,99463.88
2022-07-29T20:49:57.206Z,99465.53
2022-07-29T20:52:59.982Z,99482.09
2022-07-29T20:56:07.044Z,99485.75
2022-07-29T20:59:11.817Z,99483.34
2022-07-29T21:02:15.117Z,99488.53
2022-07-29T21:05:18.073Z,99496.69
2022-07-29T21:08:32.781Z,99490.66
2022-07-29T21:11:43.459Z,99484.47
2022-07-29T21:14:48.747Z,99472.75
2022-07-29T21:17:59.636Z,99479.34
2022-07-29T21:21:04.673Z,99479.03
2022-07-29T21:24:08.609Z,99476.16
2022-07-29T21:27:34.003Z,99487.16
2022-07-29T21:30:40.414Z,99494.72
2022-07-29T21:33:45.649Z,99496.53
2022-07-29T21:36:58.514Z,99497.59
2022-07-29T21:40:01.840Z,99497.19
2022-07-29T21:43:17.607Z,99494.91
2022-07-29T21:46:24.516Z,99495.53
2022-07-29T21:49:28.155Z,99491.59
2022-07-29T21:52:34.064Z,99498.28
2022-07-29T21:55:40.696Z,99508.69
2022-07-29T21:58:47.031Z,99497.91
2022-07-29T22:01:49.981Z,99504.69
2022-07-29T22:05:01.783Z,99505.28
2022-07-29T22:08:05.045Z,99495.44
2022-07-29T22:11:08.502Z,99507.75
2022-07-29T22:14:12.405Z,99507.16
2022-07-29T22:17:21.267Z,99498.28
2022-07-29T22:20:27.959Z,99488.13
2022-07-29T22:23:34.312Z,99482.50
2022-07-29T22:26:37.485Z,99493.34
2022-07-29T22:29:40.634Z,99498.13
2022-07-29T22:32:45.805Z,99486.28
2022-07-29T22:35:49.270Z,99487.97
2022-07-29T22:38:54.671Z,99474.66
2022-07-29T22:41:58.073Z,99478.84
2022-07-29T22:45:00.897Z,99475.59
2022-07-29T22:48:04.309Z,99474.41
2022-07-29T22:51:10.252Z,99467.00
2022-07-29T22:54:13.489Z,99469.03
2022-07-29T22:57:18.089Z,99460.91
2022-07-29T23:00:21.652Z,99445.06
2022-07-29T23:03:27.954Z,99449.09
2022-07-29T23:06:31.172Z,99450.03
2022-07-29T23:09:36.541Z,99441.41
2022-07-29T23:12:42.660Z,99448.66
2022-07-29T23:15:48.767Z,99441.41
2022-07-29T23:18:53.240Z,99443.16
2022-07-29T23:21:57.023Z,99432.09
2022-07-29T23:25:03.033Z,99423.78
2022-07-29T23:28:18.886Z,99421.03
2022-07-29T23:31:22.520Z,99438.69
2022-07-29T23:34:25.379Z,99422.25
2022-07-29T23:37:28.802Z,99418.12
2022-07-29T23:40:47.774Z,99406.94
2022-07-29T23:43:50.977Z,99406.00
2022-07-29T23:47:00.786Z,99399.37
2022-07-29T23:50:11.198Z,99401.56
2022-07-29T23:53:14.193Z,99398.19
2022-07-29T23:56:17.377Z,99425.12
2022-07-29T23:59:24.870Z,99437.87
